Strona główna
METAR-TAF:

METAR-TAF

Lotnisko :

Port lotniczy Alor Setar-Sułtan Abdul Halim

Alor Setar, Malezja

Szerokość geograficzna: 06-11-40N, Długość geograficzna: 100-24-03E, wysokość: 5 m

Aktualna obserwacja pogody

Raport powstał 20 minut temu, godzina 05:00 UTC
Wiatr 9 kt od północny wschód, zmienny między północno-północny zachód i wschodnio-południowy wschód
Temperatura 30°C
Wilgotność 70%
Ciśnienie 1011 hPa
Widzialność 10 km lub więcej
Mało chmury na wysokości 2000 ft

METAR: WMKA 070500Z 04009KT 330V110 9999 FEW020 30/24 Q1011

czas: 13:20 (05:20 UTC)

Prognoza

Raport powstał 6 godziny i 20 minut temu, godzina 23:00 UTC
Prognoza ważna od 07 godzina 00 UTC do 08 godzina 00 UTC
Wiatr 10 kt od wschodnio-północny wschód
Widzialność 10 km lub więcej
Mało chmury na wysokości 2000 ft
Stopniowe zmiany
od 07 godzina 12 UTC do 07 godzina 14 UTC
Wiatr 6 kt od wschodnio-północny wschód
Mało chmury na wysokości 3000 ft

TAF: WMKA 062300Z 0700/0800 06010KT 9999 FEW020 BECMG 0712/0714 06006KT FEW030

Obserwacja i prognoza pogody dla ponad 4000 lotnisk (raport METAR i TAF).

Dostępne stacje oznaczono żółtymi i czerwonymi punktami na mapie.

Najedź kursorem aby zobaczyć nazwę stacji.

Kliknij aby zobaczyć obserwacje i prognozy pogody.

Aby zmienić mapę: kliknij na zielony przycisk z czarnym krzyżykiem, aby powiększyć; na zielony przycisk z myślnikiem, aby pomniejszyć; na zielone strzałki, aby przejść do map sąsiednich.


METAR-TAF: